createdAt,value
2023-01-02T00:02:27.775Z,10.82
2023-01-02T00:04:57.791Z,12.50
2023-01-02T00:07:27.557Z,12.82
2023-01-02T00:09:57.299Z,15.38
2023-01-02T00:12:27.174Z,11.15
2023-01-02T00:14:58.450Z,17.38
2023-01-02T00:39:19.380Z,12.80
2023-01-02T00:41:49.306Z,11.80
2023-01-02T00:44:18.877Z,9.95
2023-01-02T00:46:48.451Z,11.25
2023-01-02T00:49:18.344Z,11.63
2023-01-02T00:51:47.861Z,10.57
2023-01-02T00:54:19.032Z,10.52
2023-01-02T00:56:49.012Z,9.63
2023-01-02T00:59:18.927Z,11.95
2023-01-02T01:01:48.741Z,10.75
2023-01-02T01:04:18.466Z,9.57
2023-01-02T01:06:48.245Z,8.85
2023-01-02T01:09:19.168Z,9.57
2023-01-02T01:11:48.692Z,8.77
2023-01-02T01:14:18.604Z,9.52
2023-01-02T01:45:13.792Z,9.13
2023-01-02T01:47:47.752Z,9.23
2023-01-02T01:50:20.912Z,7.80
2023-01-02T01:52:55.103Z,8.65
2023-01-02T01:55:27.229Z,8.23
2023-01-02T01:58:00.215Z,8.70
2023-01-02T02:00:30.791Z,8.18
2023-01-02T02:03:05.954Z,8.57
2023-01-02T02:05:37.212Z,8.38
2023-01-02T02:08:11.858Z,7.70
2023-01-02T02:10:41.997Z,7.72
2023-01-02T02:13:11.590Z,7.70
2023-01-02T02:15:47.123Z,8.25
2023-01-02T02:18:30.409Z,8.07
2023-01-02T02:21:12.163Z,7.53
2023-01-02T02:24:10.349Z,8.05
2023-01-02T02:27:09.214Z,8.38
2023-01-02T02:30:07.898Z,6.70
2023-01-02T02:32:52.248Z,7.40
2023-01-02T02:35:30.517Z,6.38
2023-01-02T02:38:09.279Z,7.05
2023-01-02T02:40:51.359Z,6.95
2023-01-02T02:43:30.966Z,7.13
2023-01-02T02:46:09.055Z,7.15
2023-01-02T02:48:48.867Z,7.40
2023-01-02T02:51:23.867Z,7.35
2023-01-02T02:53:56.989Z,6.97
2023-01-02T02:56:28.967Z,6.50
2023-01-02T02:58:59.587Z,7.60
2023-01-02T03:45:42.880Z,6.35
2023-01-02T03:48:20.611Z,6.60
2023-01-02T03:50:53.266Z,6.20
2023-01-02T03:53:23.691Z,6.25
2023-01-02T03:56:02.960Z,6.05
2023-01-02T03:58:41.006Z,6.97
2023-01-02T04:47:18.260Z,5.20
2023-01-02T04:49:51.490Z,6.03
2023-01-02T04:52:21.244Z,6.07
2023-01-02T04:54:51.115Z,5.57
2023-01-02T04:57:20.772Z,6.15
2023-01-02T04:59:50.724Z,5.88
2023-01-02T05:30:11.974Z,5.13
2023-01-02T05:32:43.142Z,5.60
2023-01-02T05:35:13.101Z,6.15
2023-01-02T05:37:42.915Z,5.50
2023-01-02T05:40:13.832Z,5.70
2023-01-02T05:42:43.619Z,5.53
2023-01-02T05:45:13.328Z,5.95
2023-01-02T05:47:44.456Z,5.20
2023-01-02T05:50:14.136Z,5.20
2023-01-02T05:52:46.016Z,6.20
2023-01-02T05:55:16.197Z,5.57
2023-01-02T05:57:45.886Z,5.95
2023-01-02T06:00:16.716Z,5.55
2023-01-02T06:02:48.725Z,5.57
2023-01-02T06:05:18.693Z,5.40
2023-01-02T06:07:48.335Z,5.25
2023-01-02T06:10:18.099Z,4.47
2023-01-02T06:12:47.902Z,5.47
2023-01-02T06:15:17.644Z,5.60
2023-01-02T06:17:48.693Z,5.80
2023-01-02T06:20:18.443Z,5.90
2023-01-02T06:22:48.191Z,5.70
2023-01-02T06:25:18.127Z,5.30
2023-01-02T06:27:47.756Z,5.10
2023-01-02T06:30:17.693Z,5.10
2023-01-02T06:32:48.776Z,5.63
2023-01-02T06:35:18.617Z,5.10
2023-01-02T06:37:48.284Z,5.30
2023-01-02T06:40:19.602Z,5.20
2023-01-02T06:42:49.347Z,5.15
2023-01-02T06:45:19.196Z,6.07
2023-01-02T06:47:50.307Z,4.88
2023-01-02T06:50:24.284Z,5.05
2023-01-02T06:52:55.218Z,4.70
2023-01-02T06:55:25.056Z,5.10
2023-01-02T06:57:55.026Z,5.05
2023-01-02T07:00:25.028Z,5.32
2023-01-02T07:02:56.371Z,5.32
2023-01-02T07:05:26.409Z,5.35
2023-01-02T07:07:56.321Z,5.10
2023-01-02T07:10:26.318Z,5.20
2023-01-02T07:12:56.325Z,4.82
2023-01-02T07:15:26.037Z,5.10
2023-01-02T07:17:57.207Z,4.75
2023-01-02T07:20:27.040Z,5.25
2023-01-02T07:22:57.590Z,4.65
2023-01-02T07:25:27.414Z,4.75
2023-01-02T07:27:57.218Z,4.97
2023-01-02T07:30:27.152Z,4.53
2023-01-02T07:32:58.581Z,4.97
2023-01-02T07:35:28.355Z,4.68
2023-01-02T07:37:58.065Z,4.72
2023-01-02T07:40:32.167Z,5.30
2023-01-02T07:43:02.336Z,5.03
2023-01-02T07:45:32.849Z,5.10
2023-01-02T07:48:04.070Z,4.78
2023-01-02T07:50:33.821Z,5.10
2023-01-02T07:53:03.651Z,5.00
2023-01-02T07:55:33.495Z,5.35
2023-01-02T07:58:03.272Z,4.63
2023-01-02T08:38:12.917Z,4.22
2023-01-02T08:40:42.942Z,4.75
2023-01-02T08:43:13.372Z,4.35
2023-01-02T08:45:43.119Z,4.35
2023-01-02T08:48:20.176Z,4.53
2023-01-02T08:50:51.514Z,4.55
2023-01-02T08:53:22.716Z,4.75
2023-01-02T08:55:54.464Z,4.47
2023-01-02T08:58:24.128Z,3.80
2023-01-02T09:47:04.930Z,4.28
2023-01-02T09:49:43.205Z,4.82
2023-01-02T09:52:18.943Z,4.35
2023-01-02T09:54:49.635Z,4.18
2023-01-02T09:57:33.253Z,4.10
2023-01-02T10:09:08.125Z,5.53
2023-01-02T10:11:57.628Z,4.97
2023-01-02T10:14:44.324Z,4.45
2023-01-02T10:17:18.162Z,4.05
2023-01-02T10:19:53.620Z,4.68
2023-01-02T10:22:28.079Z,4.90
2023-01-02T10:25:07.768Z,4.93
2023-01-02T10:27:44.521Z,4.47
2023-01-02T10:30:21.728Z,3.80
2023-01-02T10:33:03.530Z,4.40
2023-01-02T10:35:40.491Z,3.92
2023-01-02T10:38:16.251Z,4.00
2023-01-02T10:40:51.721Z,3.85
2023-01-02T10:43:21.717Z,4.82
2023-01-02T10:45:51.606Z,3.83
2023-01-02T10:48:24.743Z,3.90
2023-01-02T10:50:57.944Z,3.72
2023-01-02T10:53:33.448Z,4.15
2023-01-02T10:56:07.847Z,3.72
2023-01-02T10:58:45.503Z,3.78
2023-01-02T11:01:19.008Z,4.13
2023-01-02T11:03:50.734Z,3.67
2023-01-02T11:06:27.617Z,3.53
2023-01-02T11:09:00.528Z,3.85
2023-01-02T11:11:33.751Z,3.88
2023-01-02T11:14:11.475Z,3.95
2023-01-02T11:16:43.228Z,3.65
2023-01-02T11:19:29.242Z,3.40
2023-01-02T11:22:00.096Z,3.50
2023-01-02T11:24:30.003Z,3.88
2023-01-02T11:27:04.423Z,3.97
2023-01-02T11:29:37.494Z,3.42
2023-01-02T11:32:07.760Z,3.67
2023-01-02T11:34:40.622Z,4.28
2023-01-02T11:37:18.354Z,3.97
2023-01-02T11:40:01.607Z,3.63
2023-01-02T11:42:57.423Z,4.07
2023-01-02T11:45:29.552Z,3.60
2023-01-02T11:48:04.316Z,3.65
2023-01-02T11:50:38.898Z,3.50
2023-01-02T11:53:16.363Z,3.13
2023-01-02T11:55:50.758Z,3.60
2023-01-02T11:58:26.141Z,3.55
2023-01-02T12:01:04.002Z,3.38
2023-01-02T12:03:34.859Z,3.70
2023-01-02T12:06:17.977Z,3.45
2023-01-02T12:09:01.081Z,4.30
2023-01-02T12:11:53.956Z,3.28
2023-01-02T12:14:37.365Z,3.47
2023-01-02T12:17:14.058Z,3.67
2023-01-02T12:20:09.628Z,3.47
2023-01-02T12:23:08.742Z,3.60
2023-01-02T12:25:52.511Z,3.20
2023-01-02T12:28:54.806Z,3.60
2023-01-02T12:31:50.433Z,3.83
2023-01-02T12:34:38.564Z,3.45
2023-01-02T12:37:23.666Z,3.70
2023-01-02T12:40:12.902Z,3.38
2023-01-02T12:42:59.133Z,3.30
2023-01-02T12:45:35.683Z,3.53
2023-01-02T12:48:30.850Z,3.13
2023-01-02T12:51:14.275Z,3.85
2023-01-02T12:54:20.596Z,3.40
2023-01-02T12:57:01.623Z,3.60
2023-01-02T13:00:00.874Z,3.20
2023-01-02T13:02:53.165Z,3.08
2023-01-02T13:05:29.063Z,3.28
2023-01-02T13:08:02.892Z,3.20
2023-01-02T13:10:33.736Z,3.30
2023-01-02T13:13:04.048Z,3.30
2023-01-02T13:15:37.332Z,3.70
2023-01-02T13:18:13.324Z,2.97
2023-01-02T13:20:52.162Z,3.30
2023-01-02T13:23:33.415Z,4.97
2023-01-02T13:26:08.116Z,3.40
2023-01-02T13:28:42.302Z,3.15
2023-01-02T13:34:10.596Z,3.22
2023-01-02T13:36:46.081Z,3.05
2023-01-02T13:39:23.826Z,3.20
2023-01-02T13:42:13.688Z,3.25
2023-01-02T13:44:48.862Z,3.15
2023-01-02T13:47:25.898Z,2.90
2023-01-02T13:50:04.090Z,2.88
2023-01-02T13:52:38.074Z,2.88
2023-01-02T13:55:34.928Z,3.30
2023-01-02T13:58:26.466Z,3.55
2023-01-02T14:00:58.895Z,3.00
2023-01-02T14:03:39.628Z,3.13
2023-01-02T14:06:33.135Z,3.22
2023-01-02T14:09:19.971Z,3.15
2023-01-02T14:11:55.570Z,3.28
2023-01-02T14:14:36.261Z,3.13
2023-01-02T14:17:19.947Z,2.88
2023-01-02T14:20:16.136Z,2.80
2023-01-02T14:22:52.050Z,3.10
2023-01-02T14:25:26.223Z,3.03
2023-01-02T14:28:00.378Z,2.75
2023-01-02T14:30:37.939Z,2.88
2023-01-02T14:33:16.816Z,2.85
2023-01-02T14:35:59.021Z,2.60
2023-01-02T14:38:38.907Z,2.95
2023-01-02T14:41:53.900Z,3.42
2023-01-02T14:44:53.005Z,3.05
2023-01-02T14:47:27.228Z,2.72
2023-01-02T14:50:05.474Z,2.90
2023-01-02T14:52:44.592Z,3.17
2023-01-02T14:55:25.117Z,3.90
2023-01-02T14:58:03.885Z,2.85
2023-01-02T15:00:43.346Z,3.08
2023-01-02T15:03:29.814Z,3.53
2023-01-02T15:06:15.480Z,3.03
2023-01-02T15:08:54.352Z,2.70
2023-01-02T15:12:20.077Z,2.70
2023-01-02T15:14:50.416Z,2.70
2023-01-02T15:17:22.518Z,2.80
2023-01-02T15:19:51.612Z,2.80
2023-01-02T15:22:24.297Z,3.38
2023-01-02T15:24:55.082Z,3.03
2023-01-02T15:27:26.432Z,3.13
2023-01-02T15:30:00.032Z,2.90
2023-01-02T15:32:32.752Z,2.47
2023-01-02T15:35:22.182Z,3.13
2023-01-02T15:37:59.153Z,3.10
2023-01-02T15:40:32.975Z,2.70
2023-01-02T15:43:31.616Z,3.33
2023-01-02T15:46:05.874Z,4.20
2023-01-02T15:48:43.129Z,4.40
2023-01-02T15:51:42.156Z,4.10
2023-01-02T15:54:15.167Z,3.55
2023-01-02T15:56:44.430Z,2.67
2023-01-02T15:59:35.501Z,2.97
2023-01-02T16:02:19.151Z,2.80
2023-01-02T16:05:06.503Z,2.65
2023-01-02T16:07:41.116Z,2.80
2023-01-02T16:10:20.343Z,3.00
2023-01-02T16:13:04.116Z,2.63
2023-01-02T16:15:41.322Z,4.05
2023-01-02T16:18:22.566Z,2.85
2023-01-02T16:21:00.255Z,3.70
2023-01-02T16:23:38.724Z,3.03
2023-01-02T16:26:14.122Z,4.72
2023-01-02T16:28:56.575Z,2.80
2023-01-02T16:31:51.314Z,2.67
2023-01-02T16:34:35.637Z,2.78
2023-01-02T16:37:40.429Z,3.92
2023-01-02T16:41:03.101Z,2.97
2023-01-02T16:43:46.844Z,3.58
2023-01-02T16:46:29.671Z,4.97
2023-01-02T16:49:17.804Z,4.55
2023-01-02T16:52:21.838Z,6.50
2023-01-02T16:55:34.793Z,5.45
2023-01-02T16:58:17.208Z,6.07
2023-01-02T17:00:49.300Z,6.13
2023-01-02T17:04:06.034Z,5.80
2023-01-02T17:06:35.059Z,8.18
2023-01-02T17:09:17.384Z,5.65
2023-01-02T17:12:00.266Z,8.57
2023-01-02T17:14:31.069Z,5.07
2023-01-02T17:17:01.106Z,6.90
2023-01-02T17:19:31.272Z,6.82
2023-01-02T17:22:01.087Z,6.15
2023-01-02T17:24:32.077Z,6.40
2023-01-02T17:27:01.175Z,7.82
2023-01-02T17:29:32.444Z,5.90
2023-01-02T17:32:02.259Z,5.78
2023-01-02T17:34:32.723Z,5.50
2023-01-02T17:37:02.578Z,4.70
2023-01-02T17:39:34.210Z,6.25
2023-01-02T17:42:03.976Z,5.38
2023-01-02T17:44:34.703Z,6.00
2023-01-02T17:47:48.201Z,5.30
2023-01-02T17:49:55.502Z,6.25
2023-01-02T17:52:25.624Z,5.18
2023-01-02T17:54:57.249Z,6.70
2023-01-02T17:57:27.400Z,5.07
2023-01-02T17:59:57.778Z,5.95
2023-01-02T18:02:27.780Z,6.25
2023-01-02T18:04:58.138Z,6.40
2023-01-02T18:07:28.214Z,4.97
2023-01-02T18:10:07.436Z,5.78
2023-01-02T18:12:40.091Z,4.40
2023-01-02T18:15:14.187Z,4.70
2023-01-02T18:17:44.714Z,5.95
2023-01-02T18:20:16.587Z,5.20
2023-01-02T18:22:50.089Z,4.53
2023-01-02T18:25:24.820Z,5.30
2023-01-02T18:27:57.293Z,5.47
2023-01-02T18:30:28.057Z,4.18
2023-01-02T18:33:02.822Z,6.60
2023-01-02T18:35:56.815Z,4.10
2023-01-02T18:38:30.523Z,4.25
2023-01-02T18:41:03.274Z,8.07
2023-01-02T18:43:36.437Z,4.13
2023-01-02T18:46:16.415Z,4.55
2023-01-02T18:48:46.858Z,4.53
2023-01-02T18:51:19.793Z,4.82
2023-01-02T18:53:52.355Z,4.95
2023-01-02T18:56:31.887Z,5.07
2023-01-02T18:59:07.844Z,3.90
2023-01-02T19:01:40.798Z,6.00
2023-01-02T19:04:27.294Z,3.97
2023-01-02T19:07:02.564Z,4.47
2023-01-02T19:09:34.645Z,7.10
2023-01-02T19:12:42.295Z,3.97
2023-01-02T19:15:43.060Z,5.53
2023-01-02T19:18:33.671Z,4.20
2023-01-02T19:21:13.919Z,4.53
2023-01-02T19:23:49.165Z,4.80
2023-01-02T19:26:26.979Z,6.20
2023-01-02T19:29:02.632Z,7.35
2023-01-02T19:31:38.406Z,6.97
2023-01-02T19:34:25.987Z,6.70
2023-01-02T19:37:08.239Z,4.63
2023-01-02T19:39:42.434Z,4.22
2023-01-02T19:42:23.177Z,6.03
2023-01-02T19:44:57.229Z,8.80
2023-01-02T19:47:33.122Z,5.60
2023-01-02T19:50:04.184Z,5.60
2023-01-02T19:52:34.937Z,8.27
2023-01-02T19:55:05.714Z,5.80
2023-01-02T19:57:37.709Z,7.50
2023-01-02T20:00:12.872Z,3.97
2023-01-02T20:02:46.254Z,8.15
2023-01-02T20:05:22.613Z,5.40
2023-01-02T20:07:54.647Z,5.43
2023-01-02T20:10:25.694Z,5.75
2023-01-02T20:12:58.974Z,4.00
2023-01-02T20:15:31.454Z,3.10
2023-01-02T20:18:08.261Z,3.72
2023-01-02T20:20:39.895Z,3.17
2023-01-02T20:23:10.324Z,6.25
2023-01-02T20:25:41.024Z,5.35
2023-01-02T20:28:11.464Z,3.78
2023-01-02T20:30:43.528Z,4.13
2023-01-02T20:33:16.841Z,4.15
2023-01-02T20:35:47.390Z,4.45
2023-01-02T20:38:18.082Z,5.38
2023-01-02T20:45:03.171Z,4.63
2023-01-02T20:47:40.171Z,4.72
2023-01-02T20:50:20.009Z,3.10
2023-01-02T20:52:56.529Z,3.35
2023-01-02T20:55:27.327Z,2.88
2023-01-02T20:57:57.931Z,6.28
2023-01-02T21:00:28.681Z,5.05
2023-01-02T21:03:00.570Z,2.67
2023-01-02T21:05:30.704Z,2.15
2023-01-02T21:08:00.870Z,3.92
2023-01-02T21:10:30.829Z,3.38
2023-01-02T21:13:10.762Z,2.50
2023-01-02T21:15:51.751Z,3.55
2023-01-02T21:18:25.705Z,3.88
2023-01-02T21:20:57.880Z,4.63
2023-01-02T21:23:29.701Z,3.08
2023-01-02T21:26:00.308Z,4.38
2023-01-02T21:28:30.658Z,4.30
2023-01-02T21:31:03.750Z,7.22
2023-01-02T21:33:35.956Z,5.97
2023-01-02T21:36:08.825Z,5.70
2023-01-02T21:38:40.013Z,5.93
2023-01-02T21:41:23.682Z,5.10
2023-01-02T21:43:58.032Z,4.68
2023-01-02T21:46:29.053Z,4.53
2023-01-02T21:49:00.891Z,5.20
2023-01-02T21:51:33.053Z,6.85
2023-01-02T21:54:03.506Z,4.60
2023-01-02T21:56:35.452Z,4.90
2023-01-02T21:59:05.428Z,9.98
2023-01-02T22:01:35.779Z,4.10
2023-01-02T22:04:07.727Z,2.90
2023-01-02T22:07:04.622Z,3.40
2023-01-02T22:09:33.487Z,2.80
2023-01-02T22:12:03.517Z,5.28
2023-01-02T22:14:35.378Z,5.28
2023-01-02T22:17:08.881Z,3.95
2023-01-02T22:19:42.031Z,5.18
2023-01-02T22:22:14.181Z,3.20
2023-01-02T22:24:45.019Z,4.75
2023-01-02T22:27:16.492Z,4.30
2023-01-02T22:30:19.917Z,3.95
2023-01-02T22:32:40.730Z,5.07
2023-01-02T22:35:13.610Z,4.82
2023-01-02T22:37:44.234Z,2.55
2023-01-02T22:40:15.241Z,3.90
2023-01-02T22:43:02.270Z,3.60
2023-01-02T22:45:38.119Z,5.50
2023-01-02T22:48:16.380Z,5.22
2023-01-02T22:50:49.975Z,3.38
2023-01-02T22:53:25.604Z,5.05
2023-01-02T22:55:56.534Z,2.65
2023-01-02T22:58:27.868Z,3.63
2023-01-02T23:01:01.623Z,2.75
2023-01-02T23:03:33.293Z,3.42
2023-01-02T23:06:04.682Z,3.58
2023-01-02T23:08:35.066Z,5.85
2023-01-02T23:11:06.013Z,6.75
2023-01-02T23:13:36.942Z,6.15
2023-01-02T23:16:28.029Z,5.97
2023-01-02T23:19:16.000Z,9.30
2023-01-02T23:21:49.003Z,10.55
2023-01-02T23:24:21.550Z,4.65
2023-01-02T23:26:53.455Z,8.48
2023-01-02T23:29:24.999Z,6.18
2023-01-02T23:31:56.104Z,4.85
2023-01-02T23:34:29.406Z,9.40
2023-01-02T23:37:01.970Z,6.63
2023-01-02T23:39:34.168Z,4.40
2023-01-02T23:42:04.658Z,7.15
2023-01-02T23:44:35.172Z,3.67
2023-01-02T23:47:09.462Z,5.88
2023-01-02T23:49:42.592Z,9.52
2023-01-02T23:52:14.520Z,10.38
2023-01-02T23:54:44.675Z,8.45
